Flight Track Log - Related Links

Times and Time Zones

All times are in EDT time to prevent confusion due to time zone crossing. See the SLI524 flight status page for this flight to view local times or setup timezone preferences in your user account.

Time Position Orientation Groundspeed Altitude Reporting Facility
EDT Latitude Longitude Course Direction KTS MPH feet Rate Location/Type
Thu 07:22:00 AM 20.8428 -90.3650 262° West  Level Estimated
Thu 07:23:00 AM 20.8291 -90.4660 262° West  Level Estimated
Thu 07:24:00 AM 20.8153 -90.5669 262° West  Level Estimated
Thu 07:25:00 AM 20.8015 -90.6679 262° West  Level Estimated
Thu 07:26:00 AM 20.7876 -90.7688 262° West  Level Estimated
Thu 07:27:00 AM 20.7736 -90.8697 262° West  Level Estimated
Thu 07:28:00 AM 20.7597 -90.9706 262° West  Level Estimated
Thu 07:29:00 AM 20.7456 -91.0714 262° West  Level Estimated
Thu 07:30:00 AM 20.7315 -91.1723 262° West  Level Estimated
Thu 07:31:00 AM 20.7173 -91.2731 261° West  Level Estimated
Thu 07:32:00 AM 20.7031 -91.3739 261° West  Level Estimated
Thu 07:33:00 AM 20.6888 -91.4747 261° West  Level Estimated
Thu 07:34:00 AM 20.6745 -91.5754 261° West  Level Estimated
Thu 07:35:00 AM 20.6600 -91.6762 261° West  Level Estimated
Thu 07:36:00 AM 20.6456 -91.7769 261° West  Level Estimated
Thu 07:37:00 AM 20.6311 -91.8776 261° West  Level Estimated
Thu 07:38:00 AM 20.6165 -91.9783 261° West  Level Estimated
Thu 07:39:00 AM 20.6019 -92.0790 261° West  Level Estimated
Thu 07:40:00 AM 20.5872 -92.1796 261° West  Level Estimated
Thu 07:41:00 AM 20.5724 -92.2803 261° West  Level Estimated
Thu 07:42:00 AM 20.5576 -92.3809 261° West  Level Estimated
Thu 07:43:00 AM 20.5427 -92.4815 261° West  Level Estimated
Thu 07:44:00 AM 20.5278 -92.5820 261° West  Level Estimated
Thu 07:45:00 AM 20.5128 -92.6826 261° West  Level Estimated
Thu 07:46:00 AM 20.4977 -92.7831 261° West  Level Estimated
Thu 07:47:00 AM 20.4826 -92.8836 261° West  Level Estimated
Thu 07:48:00 AM 20.4675 -92.9841 261° West  Level Estimated
Thu 07:49:00 AM 20.4523 -93.0846 261° West  Level Estimated
Thu 07:50:00 AM 20.4370 -93.1851 261° West  Level Estimated
Thu 07:51:00 AM 20.4216 -93.2855 261° West  Level Estimated
Thu 07:52:00 AM 20.4063 -93.3859 261° West  Level Estimated
Thu 07:53:00 AM 20.3908 -93.4863 261° West  Level Estimated
Thu 07:54:00 AM 20.3753 -93.5867 261° West  Level Estimated
Thu 07:55:00 AM 20.3597 -93.6871 261° West  Level Estimated
Thu 07:56:00 AM 20.3441 -93.7874 261° West  Level Estimated
Thu 07:57:00 AM 20.3284 -93.8877 261° West  Level Estimated
Thu 07:58:00 AM 20.3127 -93.9880 261° West  Level Estimated
Thu 07:59:00 AM 20.2969 -94.0883 260° West  Level Estimated
Thu 08:00:00 AM 20.2811 -94.1885 260° West  Level Estimated
Thu 08:01:00 AM 20.2652 -94.2887 260° West  Level Estimated
Thu 08:02:00 AM 20.2492 -94.3889 260° West  Level Estimated
Thu 08:03:00 AM 20.2332 -94.4891 260° West  Level Estimated
Thu 08:04:00 AM 20.2171 -94.5893 260° West  Level Estimated
Thu 08:05:00 AM 20.2010 -94.6895 260° West  Level Estimated
Thu 08:06:00 AM 20.1848 -94.7896 260° West  Level Estimated
Thu 08:07:00 AM 20.1685 -94.8897 260° West  Level Estimated
Thu 08:08:00 AM 20.1522 -94.9898 260° West  Level Estimated
Thu 08:09:00 AM 20.1359 -95.0899 260° West  Level Estimated
Thu 08:10:00 AM 20.1194 -95.1899 260° West  Level Estimated
Thu 08:11:00 AM 20.1030 -95.2899 260° West  Level Estimated
Thu 08:12:00 AM 20.0864 -95.3899 260° West  Level Estimated
Thu 08:13:00 AM 20.0699 -95.4899 260° West  Level Estimated
Thu 08:14:00 AM 20.0532 -95.5899 260° West  Level Estimated
Thu 08:15:00 AM 20.0365 -95.6898 260° West  Level Estimated
Thu 08:16:00 AM 20.0198 -95.7897 260° West  Level Estimated
Thu 08:17:00 AM 20.0030 -95.8896 260° West  Level Estimated
Thu 08:18:00 AM 19.9861 -95.9895 260° West  Level Estimated
Thu 08:19:00 AM 19.9692 -96.0894 260° West  Level Estimated
Thu 08:20:00 AM 19.9522 -96.1892 260° West  Level Estimated
Thu 08:21:00 AM 19.9352 -96.2890 260° West  Level Estimated
Thu 08:22:00 AM 19.9181 -96.3888 260° West  Level Estimated
Thu 08:23:00 AM 19.9009 -96.4886 260° West  Level Estimated
Thu 08:24:00 AM 19.8837 -96.5883 260° West  Level Estimated
Thu 08:25:00 AM 19.8664 -96.6880 260° West  Level Estimated
Thu 08:26:00 AM 19.8491 -96.7877 260° West  Level Estimated
Thu 08:27:00 AM 19.8318 -96.8874 260° West  Level Estimated
Thu 08:28:00 AM 19.8144 -96.9871 259° West  Level Estimated
Thu 08:29:00 AM 19.7969 -97.0867 259° West  Level Estimated
Thu 08:30:00 AM 19.7793 -97.1863 259° West  Level Estimated
Thu 08:31:00 AM 19.7617 -97.2859 259° West  Level Estimated
Thu 08:32:00 AM 19.7441 -97.3855 259° West  Level Estimated
Thu 08:33:00 AM 19.7264 -97.4850 259° West  Level Estimated
Thu 08:34:00 AM 19.7087 -97.5846 259° West  Level Estimated
Thu 08:35:00 AM 19.6908 -97.6841 259° West  Level Estimated
Thu 08:36:00 AM 19.6730 -97.7836 259° West  Level Estimated
Thu 08:37:00 AM 19.6551 -97.8830 259° West  Level Estimated
Thu 08:38:00 AM 19.6371 -97.9825 259° West  Level Estimated
Thu 08:39:00 AM 19.6191 -98.0819 259° West  Level Estimated
Thu 08:40:00 AM 19.6010 -98.1813 259° West  Level Estimated
Thu 08:41:00 AM 19.5828 -98.2806 259° West  Level Estimated
Thu 08:42:00 AM 19.5647 -98.3800 259° West  Level Estimated
Thu 08:43:00 AM 19.5464 -98.4793 259° West  Level Estimated
Thu 08:44:00 AM 19.5281 -98.5786 259° West  Level Estimated
Thu 08:45:00 AM 19.5098 -98.6779 259° West  Level Estimated
Thu 08:46:00 AM 19.4914 -98.7772 259° West  Level Estimated
Thu 08:47:00 AM 19.4729 -98.8764 259° West  Level Estimated
Thu 08:48:00 AM 19.4544 -98.9756 259° West  Level Estimated
Thu 08:49:00 AM 19.4363 -99.0721 259° West  Level Estimated
Thu 08:50:00 AM 19.4363 -99.0721 43° Northeast  Level Estimated
Thu 08:51:00 AM 19.4363 -99.0721 43° Northeast  Level Estimated
Thu 08:52:00 AM 19.4363 -99.0721 43° Northeast  Level Estimated
Thu 08:53:00 AM 19.4363 -99.0721 43° Northeast  Level Estimated
Thu 08:54:00 AM 19.4363 -99.0721 43° Northeast  Level Estimated
Thu 08:55:00 AM 19.4363 -99.0721 43° Northeast  Level Estimated
Thu 08:56:00 AM 19.4363 -99.0721 43° Northeast  Level Estimated
Thu 08:57:00 AM 19.4363 -99.0721 43° Northeast  Level Estimated
Thu 08:58:00 AM 19.4363 -99.0721 43° Northeast  Level Estimated
Thu 08:59:00 AM 19.4363 -99.0721 43° Northeast  Level Estimated
Thu 09:00:00 AM 19.4363 -99.0721 43° Northeast  Level Estimated
Thu 09:01:00 AM 19.4363 -99.0721 43° Northeast  Level Estimated
Thu 09:02:00 AM 19.4363 -99.0721 43° Northeast  Level Estimated
Thu 09:03:00 AM 19.4363 -99.0721 43° Northeast  Level Estimated
Thu 09:04:00 AM 19.4363 -99.0721 43° Northeast  Level Estimated
Thu 09:05:00 AM 19.4363 -99.0721 43° Northeast  Level Estimated

Login

Don't have an account? Register now (free) for customized features, flight alerts, and more!